Time;durP1;ratioP1;P1;durP2;ratioP2;P2;SDS_P1;SDS_P2;PMS_P1;PMS_P2;Temp;Humidity;BMP_temperature;BMP_pressure;BME280_temperature;BME280_humidity;BME280_pressure;Samples;Min_cycle;Max_cycle;Signal;HPM_P1;HPM_P2
2022/07/05 00:00:12;;;;;;;28.55;15.48;;;;;;;;;;5069319;28;20083;-69
2022/07/05 00:02:40;;;;;;;38.33;19.15;;;;;;;;;;5069006;28;20542;-70
2022/07/05 00:05:06;;;;;;;25.98;15.65;;;;;;;;;;5068791;28;20045;-69
2022/07/05 00:07:32;;;;;;;27.40;16.38;;;;;;;;;;5069035;28;20070;-69
2022/07/05 00:09:58;;;;;;;25.33;12.45;;;;;;;;;;5067921;28;20179;-70
2022/07/05 00:12:25;;;;;;;25.33;12.88;;;;;;;;;;5068675;28;20080;-70
2022/07/05 00:14:51;;;;;;;23.65;12.02;;;;;;;;;;5069064;28;20531;-70
2022/07/05 00:17:17;;;;;;;16.58;11.10;;;;;;;;;;5068707;28;20136;-70
2022/07/05 00:19:43;;;;;;;17.20;11.85;;;;;;;;;;5068891;28;20041;-70
2022/07/05 00:22:09;;;;;;;20.05;11.60;;;;;;;;;;5068857;28;20055;-70
2022/07/05 00:24:35;;;;;;;21.55;13.55;;;;;;;;;;5069802;28;20036;-70
2022/07/05 00:27:01;;;;;;;29.65;14.07;;;;;;;;;;5054928;28;20050;-70
2022/07/05 00:29:27;;;;;;;14.98;13.45;;;;;;;;;;5072398;28;20128;-69
2022/07/05 00:31:53;;;;;;;26.00;14.90;;;;;;;;;;5072566;28;20127;-70
2022/07/05 00:34:19;;;;;;;20.80;13.70;;;;;;;;;;5070184;28;20430;-70
2022/07/05 00:36:45;;;;;;;20.17;13.77;;;;;;;;;;5071274;28;20523;-70
2022/07/05 00:39:11;;;;;;;24.42;14.35;;;;;;;;;;5054263;28;20076;-69
2022/07/05 00:41:37;;;;;;;30.85;15.95;;;;;;;;;;5072317;28;20122;-70
2022/07/05 00:44:04;;;;;;;20.67;14.73;;;;;;;;;;5054313;28;20071;-69
2022/07/05 00:46:30;;;;;;;18.50;13.43;;;;;;;;;;5072295;28;20044;-70
2022/07/05 00:48:59;;;;;;;22.60;13.23;;;;;;;;;;5072297;28;20041;-70
2022/07/05 00:51:25;;;;;;;29.48;16.33;;;;;;;;;;5072049;28;20080;-69
2022/07/05 00:53:51;;;;;;;32.08;18.42;;;;;;;;;;5071968;28;20044;-69
2022/07/05 00:56:20;;;;;;;28.15;18.02;;;;;;;;;;5071844;28;20090;-70
2022/07/05 00:58:46;;;;;;;28.25;16.52;;;;;;;;;;5072101;28;20477;-68
2022/07/05 01:01:12;;;;;;;27.77;14.13;;;;;;;;;;5054131;28;20068;-70
2022/07/05 01:03:38;;;;;;;20.85;13.93;;;;;;;;;;5071016;28;20040;-69
2022/07/05 01:06:07;;;;;;;21.23;13.18;;;;;;;;;;5054148;28;20074;-69
2022/07/05 01:08:33;;;;;;;22.63;13.70;;;;;;;;;;5071651;28;20127;-69
2022/07/05 01:10:59;;;;;;;23.88;13.85;;;;;;;;;;5071587;28;20485;-68
2022/07/05 01:13:25;;;;;;;23.48;13.73;;;;;;;;;;5071401;28;20128;-70
2022/07/05 01:15:51;;;;;;;23.30;13.00;;;;;;;;;;5071776;28;20040;-70
2022/07/05 01:18:18;;;;;;;14.95;13.25;;;;;;;;;;5070229;28;20062;-69
2022/07/05 01:20:44;;;;;;;16.08;12.68;;;;;;;;;;5070531;28;20045;-68
2022/07/05 01:23:10;;;;;;;18.65;13.25;;;;;;;;;;5071377;28;20054;-69
2022/07/05 01:25:36;;;;;;;24.77;13.20;;;;;;;;;;5053603;28;20119;-70
2022/07/05 01:28:02;;;;;;;29.92;15.40;;;;;;;;;;5071273;28;20098;-70
2022/07/05 01:30:28;;;;;;;23.42;14.55;;;;;;;;;;5054075;28;20048;-70
2022/07/05 01:32:54;;;;;;;25.08;15.02;;;;;;;;;;5072150;28;20079;-69
2022/07/05 01:35:23;;;;;;;23.25;15.13;;;;;;;;;;5071144;28;20376;-69
2022/07/05 01:37:49;;;;;;;24.38;15.82;;;;;;;;;;5071145;28;20538;-69
2022/07/05 01:40:15;;;;;;;31.85;15.95;;;;;;;;;;5053165;28;20128;-70
2022/07/05 01:42:41;;;;;;;24.08;16.35;;;;;;;;;;5070953;28;20055;-70
2022/07/05 01:45:08;;;;;;;19.70;16.75;;;;;;;;;;5052938;28;20052;-70
2022/07/05 01:47:37;;;;;;;24.45;14.80;;;;;;;;;;5070075;28;20041;-69
2022/07/05 01:50:04;;;;;;;16.70;12.43;;;;;;;;;;5053636;28;20044;-69
2022/07/05 01:52:30;;;;;;;18.52;13.63;;;;;;;;;;5070834;28;20052;-70
2022/07/05 01:54:56;;;;;;;21.42;13.40;;;;;;;;;;5071223;28;20071;-69
2022/07/05 01:57:22;;;;;;;17.85;12.73;;;;;;;;;;5036360;28;20076;-68
2022/07/05 01:59:48;;;;;;;17.55;13.43;;;;;;;;;;5070851;28;20064;-70
2022/07/05 02:02:14;;;;;;;21.02;13.32;;;;;;;;;;5070314;28;20431;-69
2022/07/05 02:04:40;;;;;;;20.60;13.27;;;;;;;;;;5070655;28;20035;-70
2022/07/05 02:07:10;;;;;;;16.52;13.18;;;;;;;;;;5052434;28;20048;-70
2022/07/05 02:09:37;;;;;;;17.90;12.70;;;;;;;;;;5036506;28;20037;-69
2022/07/05 02:12:03;;;;;;;20.20;14.30;;;;;;;;;;5052706;28;20056;-70
2022/07/05 02:14:29;;;;;;;43.08;20.65;;;;;;;;;;5070211;28;20043;-70
2022/07/05 02:16:56;;;;;;;32.28;17.55;;;;;;;;;;5052793;28;20550;-70
2022/07/05 02:19:22;;;;;;;22.88;14.80;;;;;;;;;;5052369;28;20032;-70
2022/07/05 02:21:49;;;;;;;27.40;13.88;;;;;;;;;;5052627;28;20097;-69
2022/07/05 02:24:17;;;;;;;17.42;13.23;;;;;;;;;;5052377;28;20121;-68
2022/07/05 02:26:52;;;;;;;18.75;12.60;;;;;;;;;;5052661;28;20052;-70
2022/07/05 02:29:18;;;;;;;20.98;12.48;;;;;;;;;;5070027;28;20415;-72
2022/07/05 02:31:45;;;;;;;19.75;12.50;;;;;;;;;;5070190;28;20091;-70
2022/07/05 02:34:12;;;;;;;33.70;18.27;;;;;;;;;;5052297;28;20044;-69
2022/07/05 02:36:38;;;;;;;26.92;18.08;;;;;;;;;;5052250;28;20148;-70
2022/07/05 02:39:07;;;;;;;41.55;20.52;;;;;;;;;;5052117;28;20029;-69
2022/07/05 02:41:34;;;;;;;41.38;20.38;;;;;;;;;;5069594;28;20531;-68
2022/07/05 02:44:01;;;;;;;37.25;21.30;;;;;;;;;;5052061;28;20113;-70
2022/07/05 02:46:29;;;;;;;36.33;19.67;;;;;;;;;;5052023;28;20041;-70
2022/07/05 02:48:58;;;;;;;50.45;19.50;;;;;;;;;;5051496;28;20044;-70
2022/07/05 02:51:24;;;;;;;44.85;20.15;;;;;;;;;;5051902;28;20121;-69
2022/07/05 02:53:53;;;;;;;36.85;19.88;;;;;;;;;;5051874;28;20119;-69
2022/07/05 02:56:19;;;;;;;47.42;20.17;;;;;;;;;;5051861;28;20132;-69
2022/07/05 02:58:47;;;;;;;34.35;19.52;;;;;;;;;;5051810;28;20519;-69
2022/07/05 03:01:13;;;;;;;32.88;18.17;;;;;;;;;;5051817;28;20044;-69
2022/07/05 03:03:39;;;;;;;37.58;20.52;;;;;;;;;;5051655;28;20071;-69
2022/07/05 03:06:06;;;;;;;35.30;19.92;;;;;;;;;;5052103;28;20105;-69
2022/07/05 03:08:33;;;;;;;33.78;19.67;;;;;;;;;;5051532;28;20559;-69
2022/07/05 03:11:00;;;;;;;38.13;19.50;;;;;;;;;;5051838;28;20198;-71
2022/07/05 03:13:25;;;;;;;34.25;19.05;;;;;;;;;;5069376;28;20040;-71
2022/07/05 03:15:51;;;;;;;33.47;19.60;;;;;;;;;;5051503;28;20458;-69
2022/07/05 03:18:21;;;;;;;33.22;19.20;;;;;;;;;;5051427;28;20044;-70
2022/07/05 03:20:47;;;;;;;34.35;19.02;;;;;;;;;;5069659;28;20048;-70
2022/07/05 03:23:14;;;;;;;28.92;18.63;;;;;;;;;;5051409;28;20086;-70
2022/07/05 03:25:47;;;;;;;29.23;19.05;;;;;;;;;;5051762;28;20071;-70
2022/07/05 03:28:13;;;;;;;36.67;17.92;;;;;;;;;;5069442;28;20036;-69
2022/07/05 03:30:43;;;;;;;32.80;17.65;;;;;;;;;;5051529;28;20573;-70
2022/07/05 03:33:10;;;;;;;31.95;17.85;;;;;;;;;;5069116;28;20051;-69
2022/07/05 03:35:38;;;;;;;26.70;18.65;;;;;;;;;;5051704;28;20040;-71
2022/07/05 03:38:05;;;;;;;31.83;18.30;;;;;;;;;;5051799;28;20054;-69
2022/07/05 03:40:31;;;;;;;26.58;17.98;;;;;;;;;;5051586;28;20083;-69
2022/07/05 03:42:57;;;;;;;24.90;16.73;;;;;;;;;;5034798;28;20067;-71
2022/07/05 03:45:25;;;;;;;26.00;16.10;;;;;;;;;;5031815;28;20053;-71
2022/07/05 03:47:52;;;;;;;19.20;16.05;;;;;;;;;;5031595;28;20106;-70
2022/07/05 03:50:18;;;;;;;30.45;15.40;;;;;;;;;;5031230;28;20045;-70
2022/07/05 03:52:44;;;;;;;20.10;14.35;;;;;;;;;;5049202;28;20544;-70
2022/07/05 03:55:10;;;;;;;20.10;14.05;;;;;;;;;;5031385;28;20072;-70
2022/07/05 03:57:36;;;;;;;25.98;13.77;;;;;;;;;;5031083;28;20072;-69
2022/07/05 04:00:02;;;;;;;16.52;13.80;;;;;;;;;;5033117;28;20060;-69
2022/07/05 04:02:39;;;;;;;18.13;11.20;;;;;;;;;;5052907;28;20134;-70
2022/07/05 04:05:05;;;;;;;21.40;12.57;;;;;;;;;;5035183;28;20043;-70
2022/07/05 04:07:32;;;;;;;19.20;13.77;;;;;;;;;;5035080;28;20044;-71
2022/07/05 04:09:58;;;;;;;27.13;12.43;;;;;;;;;;5035424;28;20044;-73
2022/07/05 04:12:24;;;;;;;25.20;13.07;;;;;;;;;;5018411;28;20477;-71
2022/07/05 04:14:51;;;;;;;20.90;12.73;;;;;;;;;;5035062;28;20086;-71
2022/07/05 04:17:17;;;;;;;18.50;11.65;;;;;;;;;;5051455;28;20312;-70
2022/07/05 04:19:43;;;;;;;21.80;11.82;;;;;;;;;;5034773;28;20071;-70
2022/07/05 04:22:09;;;;;;;12.35;9.52;;;;;;;;;;5034994;28;20052;-72
2022/07/05 04:25:17;;;;;;;12.00;8.50;;;;;;;;;;5018246;28;20087;-70
2022/07/05 04:27:24;;;;;;;19.00;9.07;;;;;;;;;;5021172;28;20546;-71
2022/07/05 04:29:51;;;;;;;20.67;9.75;;;;;;;;;;5035162;28;20120;-70
2022/07/05 04:32:17;;;;;;;21.17;9.70;;;;;;;;;;5052975;28;20143;-70
2022/07/05 04:34:43;;;;;;;17.05;10.25;;;;;;;;;;5034667;28;20044;-70
2022/07/05 04:37:09;;;;;;;16.38;9.40;;;;;;;;;;5034775;28;20538;-71
2022/07/05 04:39:35;;;;;;;13.13;9.00;;;;;;;;;;5034351;28;20041;-71
2022/07/05 04:42:06;;;;;;;18.27;9.05;;;;;;;;;;5034598;28;20418;-71
2022/07/05 04:44:33;;;;;;;10.27;9.27;;;;;;;;;;5050753;28;20057;-71
2022/07/05 04:46:59;;;;;;;11.40;9.48;;;;;;;;;;5052308;28;20411;-71
2022/07/05 04:49:25;;;;;;;17.17;10.00;;;;;;;;;;5034206;28;20044;-71
2022/07/05 04:51:51;;;;;;;12.98;9.18;;;;;;;;;;5052245;28;20489;-72
2022/07/05 04:54:19;;;;;;;17.55;9.38;;;;;;;;;;5034250;28;20072;-72
2022/07/05 04:56:44;;;;;;;14.40;9.65;;;;;;;;;;5052312;28;20076;-71
2022/07/05 04:59:10;;;;;;;14.68;9.45;;;;;;;;;;5052034;28;20068;-71
2022/07/05 05:01:36;;;;;;;13.25;9.70;;;;;;;;;;5051813;28;20332;-71
2022/07/05 05:04:02;;;;;;;14.55;9.95;;;;;;;;;;5051864;28;20040;-70
2022/07/05 05:06:28;;;;;;;10.32;8.95;;;;;;;;;;5051759;28;20518;-71
2022/07/05 05:08:54;;;;;;;9.98;8.23;;;;;;;;;;5051954;28;20415;-71
2022/07/05 05:11:20;;;;;;;13.68;8.20;;;;;;;;;;5051158;28;20047;-69
2022/07/05 05:13:46;;;;;;;10.25;9.25;;;;;;;;;;5051800;28;20044;-70
2022/07/05 05:16:12;;;;;;;8.95;7.65;;;;;;;;;;5051858;28;20132;-72
2022/07/05 05:18:38;;;;;;;10.88;7.80;;;;;;;;;;5051477;28;20048;-72
2022/07/05 05:21:04;;;;;;;9.25;7.53;;;;;;;;;;5051855;28;20041;-71
2022/07/05 05:23:30;;;;;;;13.27;6.90;;;;;;;;;;5033487;28;20045;-71
2022/07/05 05:25:56;;;;;;;8.80;7.53;;;;;;;;;;5051586;28;20067;-71
2022/07/05 05:28:22;;;;;;;7.70;6.93;;;;;;;;;;5033737;28;20041;-72
2022/07/05 05:30:48;;;;;;;7.63;7.05;;;;;;;;;;5051633;28;20037;-71
2022/07/05 05:33:14;;;;;;;9.88;6.80;;;;;;;;;;5051515;28;20049;-71
2022/07/05 05:35:40;;;;;;;7.85;7.25;;;;;;;;;;5050994;28;20525;-72
2022/07/05 05:38:06;;;;;;;8.40;7.25;;;;;;;;;;5051391;28;20048;-71
2022/07/05 05:40:37;;;;;;;6.93;6.38;;;;;;;;;;5051132;28;20041;-72
2022/07/05 05:43:03;;;;;;;10.95;7.00;;;;;;;;;;5051320;28;20048;-71
2022/07/05 05:45:29;;;;;;;13.35;7.47;;;;;;;;;;5050842;28;20045;-71
2022/07/05 05:47:56;;;;;;;7.70;7.05;;;;;;;;;;5033241;28;20079;-71
2022/07/05 05:50:22;;;;;;;13.05;7.95;;;;;;;;;;5050726;28;20059;-70
2022/07/05 05:52:49;;;;;;;7.90;7.38;;;;;;;;;;5033372;28;20056;-69
2022/07/05 05:55:15;;;;;;;7.88;6.68;;;;;;;;;;5051022;28;20286;-72
2022/07/05 05:57:41;;;;;;;8.77;6.90;;;;;;;;;;5050720;28;20045;-71
2022/07/05 06:00:07;;;;;;;7.97;6.75;;;;;;;;;;5050897;28;20110;-71
2022/07/05 06:02:37;;;;;;;8.00;6.63;;;;;;;;;;5050690;28;20051;-71
2022/07/05 06:05:03;;;;;;;7.50;6.80;;;;;;;;;;5050781;28;20040;-72
2022/07/05 06:07:29;;;;;;;8.73;6.72;;;;;;;;;;5050740;28;20055;-71
2022/07/05 06:09:56;;;;;;;7.55;6.95;;;;;;;;;;5050655;28;20032;-71
2022/07/05 06:12:22;;;;;;;7.57;6.80;;;;;;;;;;5032699;28;20059;-71
2022/07/05 06:14:48;;;;;;;10.68;6.80;;;;;;;;;;5050562;28;20442;-72
2022/07/05 06:17:14;;;;;;;9.50;6.68;;;;;;;;;;5050623;28;20040;-70
2022/07/05 06:19:40;;;;;;;7.25;6.65;;;;;;;;;;5050342;28;20040;-71
2022/07/05 06:22:06;;;;;;;7.40;6.70;;;;;;;;;;5050025;28;20526;-71
2022/07/05 06:24:31;;;;;;;10.40;6.65;;;;;;;;;;5050360;28;20049;-71
2022/07/05 06:26:58;;;;;;;8.98;6.03;;;;;;;;;;5050685;28;20053;-72
2022/07/05 06:29:24;;;;;;;7.05;6.38;;;;;;;;;;5050191;28;20045;-71
2022/07/05 06:31:49;;;;;;;6.72;6.28;;;;;;;;;;5032529;28;20056;-71
2022/07/05 06:34:16;;;;;;;6.63;5.85;;;;;;;;;;5050549;28;20044;-71
2022/07/05 06:36:42;;;;;;;7.00;6.40;;;;;;;;;;5050212;28;20119;-70
2022/07/05 06:39:07;;;;;;;6.95;6.40;;;;;;;;;;5050083;28;20128;-70
2022/07/05 06:41:34;;;;;;;6.43;5.93;;;;;;;;;;5049939;28;20150;-70
2022/07/05 06:43:59;;;;;;;10.38;5.80;;;;;;;;;;5049847;28;20115;-72
2022/07/05 06:46:25;;;;;;;9.18;5.80;;;;;;;;;;5049935;28;20049;-70
2022/07/05 06:48:52;;;;;;;7.95;5.70;;;;;;;;;;5049924;28;20397;-70
2022/07/05 06:51:18;;;;;;;6.28;5.60;;;;;;;;;;5049917;28;20422;-71
2022/07/05 06:53:44;;;;;;;7.18;5.43;;;;;;;;;;5049677;28;20044;-72
2022/07/05 06:56:11;;;;;;;7.38;6.03;;;;;;;;;;5050035;28;20121;-70
2022/07/05 06:58:37;;;;;;;6.22;5.50;;;;;;;;;;5049744;28;20047;-71
2022/07/05 07:01:03;;;;;;;10.48;5.95;;;;;;;;;;5049897;28;20590;-70
2022/07/05 07:03:29;;;;;;;6.00;5.32;;;;;;;;;;5049593;28;20642;-70
2022/07/05 07:05:55;;;;;;;8.05;5.82;;;;;;;;;;5049755;28;20623;-72
2022/07/05 07:11:06;;;;;;;8.30;6.32;;;;;;;;;;5049912;28;20039;-71
2022/07/05 07:13:32;;;;;;;8.25;5.50;;;;;;;;;;5049719;28;20057;-71
2022/07/05 07:15:58;;;;;;;7.20;6.03;;;;;;;;;;5049762;28;20056;-70
2022/07/05 07:18:24;;;;;;;5.90;5.50;;;;;;;;;;5032321;28;20139;-69
2022/07/05 07:20:50;;;;;;;6.55;5.95;;;;;;;;;;5049348;28;20056;-70
2022/07/05 07:23:16;;;;;;;6.18;5.70;;;;;;;;;;5049771;28;20041;-71
2022/07/05 07:25:42;;;;;;;6.82;6.20;;;;;;;;;;4998509;28;20049;-69
2022/07/05 07:28:08;;;;;;;5.95;5.55;;;;;;;;;;5032028;28;20046;-70
2022/07/05 07:30:34;;;;;;;6.57;5.43;;;;;;;;;;5049265;28;20045;-70
2022/07/05 07:33:00;;;;;;;9.15;5.18;;;;;;;;;;5050208;28;20589;-69
2022/07/05 07:35:26;;;;;;;6.82;5.40;;;;;;;;;;5038545;28;20049;-71
2022/07/05 07:37:53;;;;;;;6.35;5.25;;;;;;;;;;5038346;28;20044;-71
2022/07/05 07:40:19;;;;;;;6.45;5.57;;;;;;;;;;5055972;28;20045;-71
2022/07/05 07:42:45;;;;;;;9.32;5.90;;;;;;;;;;5021690;28;20591;-71
2022/07/05 07:45:11;;;;;;;6.22;5.78;;;;;;;;;;5038083;28;20137;-71
2022/07/05 07:47:38;;;;;;;6.38;5.88;;;;;;;;;;5055810;28;20535;-70
2022/07/05 07:50:05;;;;;;;6.13;5.68;;;;;;;;;;5055863;28;20045;-70
2022/07/05 07:52:33;;;;;;;6.43;5.82;;;;;;;;;;5055605;28;20063;-69
2022/07/05 07:54:59;;;;;;;6.57;5.70;;;;;;;;;;5037997;28;20041;-70
2022/07/05 07:57:25;;;;;;;9.05;5.97;;;;;;;;;;5038109;28;20663;-71
2022/07/05 07:59:52;;;;;;;6.70;6.10;;;;;;;;;;5055656;28;20037;-71
2022/07/05 08:02:21;;;;;;;6.50;6.00;;;;;;;;;;5055860;28;20036;-70
2022/07/05 08:04:48;;;;;;;6.72;6.07;;;;;;;;;;5055554;28;20037;-69
2022/07/05 08:07:14;;;;;;;6.40;5.78;;;;;;;;;;5056188;28;20060;-71
2022/07/05 08:09:40;;;;;;;6.88;6.15;;;;;;;;;;5055421;28;20470;-71
2022/07/05 08:12:06;;;;;;;8.10;6.60;;;;;;;;;;5055892;28;20136;-71
2022/07/05 08:14:32;;;;;;;11.40;5.93;;;;;;;;;;5037874;28;20116;-71
2022/07/05 08:16:58;;;;;;;6.43;5.93;;;;;;;;;;5056455;28;20045;-73
2022/07/05 08:22:09;;;;;;;6.72;6.10;;;;;;;;;;5055793;28;20511;-70
2022/07/05 08:24:36;;;;;;;11.65;5.93;;;;;;;;;;5037519;28;20106;-71
2022/07/05 08:27:02;;;;;;;7.00;6.30;;;;;;;;;;5037976;28;20033;-70
2022/07/05 08:29:28;;;;;;;6.30;5.85;;;;;;;;;;5037583;28;20047;-71
2022/07/05 08:31:54;;;;;;;6.00;5.63;;;;;;;;;;5055230;28;20056;-71
2022/07/05 08:34:20;;;;;;;6.50;6.00;;;;;;;;;;5055373;28;20044;-71
2022/07/05 08:36:46;;;;;;;6.63;5.95;;;;;;;;;;5055254;28;20041;-71
2022/07/05 08:39:13;;;;;;;6.70;6.10;;;;;;;;;;5037755;28;20065;-71
2022/07/05 08:41:39;;;;;;;8.65;5.75;;;;;;;;;;5037493;28;20095;-69
2022/07/05 08:44:05;;;;;;;8.70;5.75;;;;;;;;;;5055199;28;20049;-70
2022/07/05 08:46:32;;;;;;;5.97;5.57;;;;;;;;;;5034065;28;20063;-71
2022/07/05 08:49:02;;;;;;;6.50;5.70;;;;;;;;;;5052437;28;20179;-69
2022/07/05 08:51:28;;;;;;;5.68;5.38;;;;;;;;;;5034478;28;20072;-72
2022/07/05 08:53:55;;;;;;;11.68;5.70;;;;;;;;;;5052055;28;20083;-71
2022/07/05 08:56:21;;;;;;;9.98;6.00;;;;;;;;;;5052146;28;20045;-71
2022/07/05 08:58:49;;;;;;;5.78;5.38;;;;;;;;;;5034164;28;20520;-71
2022/07/05 09:01:15;;;;;;;8.00;6.05;;;;;;;;;;5034003;28;20045;-71
2022/07/05 09:03:46;;;;;;;6.78;6.30;;;;;;;;;;5051658;28;20110;-71
2022/07/05 09:06:13;;;;;;;9.30;6.10;;;;;;;;;;5052013;28;20040;-71
2022/07/05 09:08:39;;;;;;;7.15;6.43;;;;;;;;;;5052115;28;20043;-72
2022/07/05 09:11:15;;;;;;;6.30;5.90;;;;;;;;;;5051822;28;20041;-71
2022/07/05 09:13:42;;;;;;;6.85;6.20;;;;;;;;;;5051675;28;20589;-72
2022/07/05 09:16:09;;;;;;;6.78;6.30;;;;;;;;;;5051807;28;20053;-71
2022/07/05 09:18:56;;;;;;;8.10;6.55;;;;;;;;;;5051600;28;20048;-71
2022/07/05 09:21:22;;;;;;;6.40;5.88;;;;;;;;;;5051566;28;20122;-72
2022/07/05 09:23:55;;;;;;;9.63;6.05;;;;;;;;;;5033536;28;20534;-70
2022/07/05 09:26:34;;;;;;;6.95;6.20;;;;;;;;;;5051677;28;20049;-72
2022/07/05 09:29:00;;;;;;;6.50;6.00;;;;;;;;;;5051615;28;20563;-69
2022/07/05 09:31:29;;;;;;;7.15;6.63;;;;;;;;;;5051360;28;20047;-70
2022/07/05 09:34:09;;;;;;;7.68;6.20;;;;;;;;;;5033618;28;20175;-70
2022/07/05 09:36:34;;;;;;;;;;;;;;;;;;5034191;28;20188;-71
2022/07/05 09:39:01;;;;;;;7.25;6.75;;;;;;;;;;5051644;28;20351;-71
2022/07/05 09:41:27;;;;;;;7.85;6.15;;;;;;;;;;5033772;28;20044;-69
2022/07/05 09:43:53;;;;;;;7.70;7.10;;;;;;;;;;5051006;28;20135;-70
2022/07/05 09:46:19;;;;;;;10.32;7.03;;;;;;;;;;5051319;28;20052;-70
2022/07/05 09:48:54;;;;;;;7.07;6.57;;;;;;;;;;5033152;28;20041;-71
2022/07/05 09:51:20;;;;;;;7.18;6.13;;;;;;;;;;5033751;28;20419;-71
2022/07/05 09:53:55;;;;;;;7.40;6.70;;;;;;;;;;5050959;28;20464;-71
2022/07/05 09:56:23;;;;;;;6.97;6.55;;;;;;;;;;5032730;28;20056;-71
2022/07/05 09:58:50;;;;;;;8.23;6.50;;;;;;;;;;5050791;28;20580;-69
2022/07/05 10:01:36;;;;;;;8.63;6.05;;;;;;;;;;5033159;28;20072;-70
2022/07/05 10:04:02;;;;;;;8.70;6.25;;;;;;;;;;5051027;28;20519;-72
2022/07/05 10:06:29;;;;;;;7.28;6.43;;;;;;;;;;5016563;28;20044;-71
2022/07/05 10:08:55;;;;;;;7.25;6.43;;;;;;;;;;5016661;28;20132;-71
2022/07/05 10:11:21;;;;;;;6.60;6.10;;;;;;;;;;5050489;28;20041;-71
2022/07/05 10:13:48;;;;;;;7.82;6.57;;;;;;;;;;5050414;28;20102;-69
2022/07/05 10:16:15;;;;;;;7.70;7.15;;;;;;;;;;5050868;28;20040;-71
2022/07/05 10:18:40;;;;;;;7.03;6.40;;;;;;;;;;5050654;28;20523;-71
2022/07/05 10:21:07;;;;;;;7.40;6.90;;;;;;;;;;5032831;28;20077;-69
2022/07/05 10:23:33;;;;;;;8.02;6.03;;;;;;;;;;5032886;28;20037;-70
2022/07/05 10:25:59;;;;;;;6.90;6.20;;;;;;;;;;5050247;28;20049;-71
2022/07/05 10:28:25;;;;;;;6.95;6.45;;;;;;;;;;5050577;28;20450;-71
2022/07/05 10:30:52;;;;;;;6.22;5.50;;;;;;;;;;5050199;28;20052;-70
2022/07/05 10:33:20;;;;;;;7.00;6.50;;;;;;;;;;5050355;28;20055;-70
2022/07/05 10:35:46;;;;;;;6.05;5.60;;;;;;;;;;5049955;28;20041;-71
2022/07/05 10:38:12;;;;;;;5.93;5.43;;;;;;;;;;5050469;28;20576;-71
2022/07/05 10:40:39;;;;;;;7.80;7.00;;;;;;;;;;5015837;28;20423;-70
2022/07/05 10:43:06;;;;;;;7.35;6.95;;;;;;;;;;5050394;28;20456;-70
2022/07/05 10:45:33;;;;;;;6.80;6.30;;;;;;;;;;5032867;28;20409;-70
2022/07/05 10:48:17;;;;;;;8.57;6.15;;;;;;;;;;5050057;28;20048;-71
2022/07/05 10:50:44;;;;;;;7.50;6.90;;;;;;;;;;5049758;28;20076;-70
2022/07/05 10:53:10;;;;;;;6.80;6.40;;;;;;;;;;5050059;28;20072;-71
2022/07/05 10:55:59;;;;;;;8.25;6.47;;;;;;;;;;5032440;28;20083;-70
2022/07/05 10:58:29;;;;;;;7.57;6.97;;;;;;;;;;5039893;28;20124;-70
2022/07/05 11:01:14;;;;;;;11.73;6.50;;;;;;;;;;5049656;28;20051;-70
2022/07/05 11:03:40;;;;;;;9.43;6.88;;;;;;;;;;5049616;28;20124;-71
2022/07/05 11:06:07;;;;;;;6.90;6.40;;;;;;;;;;5049582;28;20041;-70
2022/07/05 11:08:52;;;;;;;6.95;6.35;;;;;;;;;;5031536;28;20530;-70
2022/07/05 11:11:19;;;;;;;8.30;6.18;;;;;;;;;;5049739;28;20056;-69
2022/07/05 11:13:47;;;;;;;7.20;6.70;;;;;;;;;;5031643;28;20045;-70
2022/07/05 11:16:31;;;;;;;7.25;6.75;;;;;;;;;;5049809;28;20041;-70
2022/07/05 11:19:13;;;;;;;7.15;6.75;;;;;;;;;;5049420;28;20448;-70
2022/07/05 11:21:40;;;;;;;7.07;6.50;;;;;;;;;;5049358;28;20537;-70
2022/07/05 11:24:17;;;;;;;7.63;7.10;;;;;;;;;;5049586;28;20071;-69
2022/07/05 11:26:43;;;;;;;7.28;6.78;;;;;;;;;;5049248;28;20505;-70
2022/07/05 11:29:29;;;;;;;9.82;6.60;;;;;;;;;;5049665;28;20052;-70
2022/07/05 11:32:04;;;;;;;7.00;6.60;;;;;;;;;;5049243;28;20045;-70
2022/07/05 11:34:34;;;;;;;6.90;6.30;;;;;;;;;;5049469;28;20127;-69
2022/07/05 11:37:32;;;;;;;8.02;7.32;;;;;;;;;;5049178;28;20032;-71
2022/07/05 11:40:07;;;;;;;9.38;8.48;;;;;;;;;;5049274;28;20045;-70
2022/07/05 11:42:37;;;;;;;12.77;8.50;;;;;;;;;;5049513;28;20519;-71
2022/07/05 11:45:05;;;;;;;12.30;8.50;;;;;;;;;;5048831;28;20061;-71
2022/07/05 11:47:31;;;;;;;9.35;8.00;;;;;;;;;;5049394;28;20041;-70
2022/07/05 11:49:57;;;;;;;10.13;8.00;;;;;;;;;;5031216;28;20515;-70
2022/07/05 11:52:26;;;;;;;9.02;8.20;;;;;;;;;;5049226;28;20068;-70
2022/07/05 11:54:52;;;;;;;9.38;8.57;;;;;;;;;;5048842;28;20045;-70
2022/07/05 11:57:19;;;;;;;15.13;7.97;;;;;;;;;;5031345;28;20045;-70
2022/07/05 11:59:45;;;;;;;10.10;9.00;;;;;;;;;;5048804;28;20044;-71
2022/07/05 12:02:11;;;;;;;13.02;9.55;;;;;;;;;;5031447;28;20431;-70
2022/07/05 12:04:37;;;;;;;10.32;8.13;;;;;;;;;;5049292;28;20045;-70
2022/07/05 12:07:03;;;;;;;9.68;8.57;;;;;;;;;;5048907;28;20047;-71
2022/07/05 12:12:43;;;;;;;10.18;9.10;;;;;;;;;;4957228;28;20086;-72
2022/07/05 12:15:10;;;;;;;10.45;9.40;;;;;;;;;;4953237;28;20537;-71
2022/07/05 12:17:37;;;;;;;12.35;9.57;;;;;;;;;;5011566;28;20064;-71
2022/07/05 12:20:03;;;;;;;12.90;9.50;;;;;;;;;;5048757;28;20049;-72
2022/07/05 12:22:30;;;;;;;11.40;10.27;;;;;;;;;;5034885;28;20041;-72
2022/07/05 12:24:58;;;;;;;13.65;9.60;;;;;;;;;;5052612;28;20045;-72
2022/07/05 12:27:27;;;;;;;11.35;9.90;;;;;;;;;;5052699;28;20550;-71
2022/07/05 12:29:53;;;;;;;15.90;9.57;;;;;;;;;;5034605;28;20411;-71
2022/07/05 12:32:19;;;;;;;11.40;9.70;;;;;;;;;;5052558;28;20056;-69
2022/07/05 12:34:45;;;;;;;16.77;9.50;;;;;;;;;;5032379;28;20504;-70
2022/07/05 12:37:19;;;;;;;10.80;9.82;;;;;;;;;;5040569;28;20063;-70
2022/07/05 12:39:45;;;;;;;15.30;10.10;;;;;;;;;;5032430;28;20046;-73
2022/07/05 12:42:11;;;;;;;14.48;10.20;;;;;;;;;;5032631;28;20111;-71
2022/07/05 12:44:37;;;;;;;10.15;9.00;;;;;;;;;;5014776;28;20072;-71
2022/07/05 12:47:04;;;;;;;10.52;9.48;;;;;;;;;;5014505;28;20080;-69
2022/07/05 12:49:30;;;;;;;11.13;9.65;;;;;;;;;;5032977;28;20048;-71
2022/07/05 12:52:02;;;;;;;10.32;9.32;;;;;;;;;;5032036;28;20053;-70
2022/07/05 13:00:05;;;;;;;13.45;9.10;;;;;;;;;;5032148;28;20440;-71
2022/07/05 13:02:35;;;;;;;10.30;9.48;;;;;;;;;;5032248;28;20046;-71
2022/07/05 13:05:01;;;;;;;10.23;9.00;;;;;;;;;;5031903;28;20285;-70
2022/07/05 13:07:28;;;;;;;13.60;8.85;;;;;;;;;;5032233;28;20049;-71
2022/07/05 13:09:54;;;;;;;9.77;8.88;;;;;;;;;;5031624;28;20041;-70
2022/07/05 13:12:24;;;;;;;13.80;9.60;;;;;;;;;;5032017;28;20057;-71
2022/07/05 13:14:53;;;;;;;13.43;11.52;;;;;;;;;;5031832;28;20037;-72
2022/07/05 13:17:22;;;;;;;13.00;10.53;;;;;;;;;;5032157;28;20424;-73
2022/07/05 13:19:51;;;;;;;15.80;11.60;;;;;;;;;;5032683;28;20037;-73
2022/07/05 13:22:17;;;;;;;10.40;9.40;;;;;;;;;;4998896;28;20041;-74
2022/07/05 13:24:43;;;;;;;11.20;10.18;;;;;;;;;;5032159;28;20124;-72
2022/07/05 13:27:09;;;;;;;11.25;10.07;;;;;;;;;;5013904;28;20171;-73
2022/07/05 13:29:35;;;;;;;10.93;10.00;;;;;;;;;;5014269;28;20041;-71
2022/07/05 13:32:01;;;;;;;11.60;10.45;;;;;;;;;;5031020;28;20432;-71
2022/07/05 13:34:28;;;;;;;11.10;10.15;;;;;;;;;;5014098;28;20128;-71
2022/07/05 13:36:54;;;;;;;8.95;8.15;;;;;;;;;;5031232;28;20048;-70
2022/07/05 13:39:20;;;;;;;10.63;9.82;;;;;;;;;;5031483;28;20041;-71
2022/07/05 13:41:47;;;;;;;10.95;9.98;;;;;;;;;;5031399;28;20071;-70
2022/07/05 13:44:13;;;;;;;11.32;10.45;;;;;;;;;;5040813;28;20045;-69
2022/07/05 13:46:40;;;;;;;11.60;10.20;;;;;;;;;;5051260;28;20048;-71
2022/07/05 13:49:06;;;;;;;15.07;11.18;;;;;;;;;;5051508;28;20063;-71
2022/07/05 13:51:32;;;;;;;15.85;10.85;;;;;;;;;;5051712;28;20084;-71
2022/07/05 13:53:58;;;;;;;11.60;10.27;;;;;;;;;;5033047;28;21042;-70
2022/07/05 13:56:25;;;;;;;14.68;12.25;;;;;;;;;;5016529;28;20045;-73
2022/07/05 13:58:51;;;;;;;17.40;12.40;;;;;;;;;;5050618;28;20040;-71
2022/07/05 14:01:20;;;;;;;14.40;12.90;;;;;;;;;;5050824;28;20072;-71
2022/07/05 14:03:46;;;;;;;13.00;11.90;;;;;;;;;;5050774;28;20060;-71
2022/07/05 14:06:12;;;;;;;20.70;17.25;;;;;;;;;;5032592;28;20474;-70
2022/07/05 14:08:38;;;;;;;16.45;14.15;;;;;;;;;;5016725;28;20048;-70
2022/07/05 14:11:07;;;;;;;22.05;15.55;;;;;;;;;;5032772;28;20040;-72
2022/07/05 14:13:34;;;;;;;18.50;16.58;;;;;;;;;;5032990;28;20475;-72
2022/07/05 14:16:00;;;;;;;20.33;15.50;;;;;;;;;;5032760;28;20642;-74
2022/07/05 14:18:26;;;;;;;24.73;15.65;;;;;;;;;;5033088;28;20350;-75
2022/07/05 14:20:52;;;;;;;21.40;14.77;;;;;;;;;;5050451;28;20049;-74
2022/07/05 14:23:18;;;;;;;14.68;13.23;;;;;;;;;;5032919;28;20048;-72
2022/07/05 14:25:45;;;;;;;15.32;14.20;;;;;;;;;;5050452;28;20564;-71
2022/07/05 14:28:11;;;;;;;13.18;11.98;;;;;;;;;;5050295;28;20511;-71
2022/07/05 14:30:38;;;;;;;13.75;12.43;;;;;;;;;;5050289;28;20056;-72
2022/07/05 14:33:04;;;;;;;12.25;11.05;;;;;;;;;;5050198;28;20562;-72
2022/07/05 14:35:30;;;;;;;11.55;10.55;;;;;;;;;;4999878;28;20140;-69
2022/07/05 14:37:56;;;;;;;17.95;11.90;;;;;;;;;;5050148;28;20464;-70
2022/07/05 14:40:25;;;;;;;15.25;13.60;;;;;;;;;;5050410;28;20122;-72
2022/07/05 14:42:51;;;;;;;16.15;14.30;;;;;;;;;;5031946;28;20041;-72
2022/07/05 14:45:18;;;;;;;12.93;11.32;;;;;;;;;;5049948;28;20053;-71